createdAt,value
2022-11-15T00:00:57.052Z,25.77
2022-11-15T00:03:26.449Z,40.50
2022-11-15T00:05:53.194Z,31.52
2022-11-15T00:08:19.923Z,50.22
2022-11-15T00:11:00.858Z,35.67
2022-11-15T00:13:28.963Z,37.13
2022-11-15T00:15:59.691Z,26.52
2022-11-15T00:18:26.950Z,35.05
2022-11-15T00:20:53.642Z,37.97
2022-11-15T00:23:20.652Z,43.85
2022-11-15T00:25:47.629Z,46.15
2022-11-15T00:28:14.273Z,27.13
2022-11-15T00:30:41.170Z,37.75
2022-11-15T00:33:08.295Z,38.78
2022-11-15T00:35:35.870Z,32.92
2022-11-15T00:38:03.806Z,22.92
2022-11-15T00:40:30.898Z,39.10
2022-11-15T00:42:57.592Z,45.08
2022-11-15T00:45:24.796Z,47.92
2022-11-15T00:47:51.989Z,71.75
2022-11-15T00:50:19.232Z,58.17
2022-11-15T00:52:46.605Z,70.85
2022-11-15T00:55:20.824Z,81.95
2022-11-15T00:57:47.923Z,61.03
2022-11-15T01:00:15.136Z,62.25
2022-11-15T01:02:42.118Z,42.30
2022-11-15T01:05:09.301Z,97.60
2022-11-15T01:07:36.141Z,68.35
2022-11-15T01:10:03.473Z,74.78
2022-11-15T01:12:30.518Z,68.05
2022-11-15T01:14:57.134Z,56.58
2022-11-15T01:17:23.993Z,38.75
2022-11-15T01:19:50.869Z,41.00
2022-11-15T01:22:17.541Z,28.77
2022-11-15T01:24:44.520Z,49.08
2022-11-15T01:27:11.254Z,33.28
2022-11-15T01:29:37.895Z,42.65
2022-11-15T01:32:04.938Z,50.97
2022-11-15T01:34:31.612Z,43.05
2022-11-15T01:36:58.257Z,44.00
2022-11-15T01:39:25.113Z,46.38
2022-11-15T01:41:51.900Z,55.33
2022-11-15T01:44:50.687Z,72.75
2022-11-15T01:47:34.304Z,45.17
2022-11-15T01:50:05.283Z,47.20
2022-11-15T01:52:35.505Z,51.92
2022-11-15T01:55:04.701Z,75.97
2022-11-15T01:57:32.130Z,49.20
2022-11-15T02:00:01.426Z,66.78
2022-11-15T02:02:28.477Z,69.85
2022-11-15T02:04:55.349Z,63.00
2022-11-15T02:07:23.655Z,54.28
2022-11-15T02:09:51.875Z,59.08
2022-11-15T02:12:22.719Z,71.35
2022-11-15T02:14:53.797Z,104.65
2022-11-15T02:17:26.271Z,59.65
2022-11-15T02:20:16.145Z,59.58
2022-11-15T02:23:05.178Z,52.58
2022-11-15T02:25:40.277Z,51.42
2022-11-15T02:28:34.851Z,48.88
2022-11-15T02:31:10.878Z,46.78
2022-11-15T02:34:07.295Z,33.88
2022-11-15T02:36:39.603Z,41.00
2022-11-15T02:39:18.798Z,38.35
2022-11-15T02:41:55.694Z,35.55
2022-11-15T02:44:32.588Z,29.90
2022-11-15T02:47:15.738Z,38.42
2022-11-15T02:49:49.228Z,28.80
2022-11-15T02:52:23.021Z,33.45
2022-11-15T02:54:57.854Z,35.30
2022-11-15T02:57:38.487Z,33.72
2022-11-15T03:00:18.891Z,30.98
2022-11-15T03:02:57.924Z,29.67
2022-11-15T03:05:45.509Z,30.50
2022-11-15T03:08:24.039Z,47.95
2022-11-15T03:11:12.630Z,32.75
2022-11-15T03:13:52.492Z,31.42
2022-11-15T03:16:37.962Z,32.08
2022-11-15T03:19:31.254Z,32.65
2022-11-15T03:22:01.255Z,23.80
2022-11-15T03:24:32.896Z,48.60
2022-11-15T03:27:01.649Z,29.48
2022-11-15T03:29:35.295Z,41.35
2022-11-15T03:32:07.667Z,34.28
2022-11-15T03:34:58.823Z,34.30
2022-11-15T03:37:51.352Z,63.35
2022-11-15T03:40:23.068Z,42.90
2022-11-15T03:43:27.840Z,33.30
2022-11-15T03:46:12.479Z,28.13
2022-11-15T03:48:45.353Z,25.20
2022-11-15T03:51:12.500Z,68.30
2022-11-15T03:53:39.154Z,37.50
2022-11-15T03:56:05.889Z,54.58
2022-11-15T03:58:32.746Z,95.05
2022-11-15T04:01:00.550Z,84.18
2022-11-15T04:03:27.495Z,102.75
2022-11-15T04:05:54.497Z,125.65
2022-11-15T04:08:21.198Z,53.60
2022-11-15T04:10:50.269Z,166.77
2022-11-15T04:13:17.053Z,84.10
2022-11-15T04:15:43.749Z,91.15
2022-11-15T04:18:10.416Z,117.60
2022-11-15T04:20:56.330Z,129.63
2022-11-15T04:23:42.789Z,94.70
2022-11-15T04:26:16.142Z,74.32
2022-11-15T04:29:01.627Z,73.70
2022-11-15T04:31:29.068Z,90.60
2022-11-15T04:33:55.736Z,68.30
2022-11-15T04:36:42.248Z,77.10
2022-11-15T04:39:09.247Z,68.47
2022-11-15T04:41:35.930Z,97.95
2022-11-15T04:44:02.556Z,105.25
2022-11-15T04:46:29.441Z,121.75
2022-11-15T04:48:58.913Z,120.68
2022-11-15T04:51:26.571Z,96.65
2022-11-15T04:53:53.354Z,94.25
2022-11-15T04:56:20.456Z,84.43
2022-11-15T04:58:50.344Z,123.35
2022-11-15T05:01:17.254Z,91.63
2022-11-15T05:04:03.452Z,54.35
2022-11-15T05:06:31.274Z,98.43
2022-11-15T05:08:58.391Z,86.13
2022-11-15T05:11:25.472Z,62.58
2022-11-15T05:13:52.111Z,83.90
2022-11-15T05:16:18.868Z,96.53
2022-11-15T05:18:45.476Z,83.97
2022-11-15T05:21:15.296Z,97.88
2022-11-15T05:23:42.234Z,113.70
2022-11-15T05:26:10.115Z,89.05
2022-11-15T05:28:37.597Z,1530.28
2022-11-15T05:31:09.677Z,1999.90
2022-11-15T05:33:40.655Z,1999.90
2022-11-15T05:36:42.094Z,771.80
2022-11-15T05:39:09.470Z,1999.90
2022-11-15T05:41:47.906Z,1999.90
2022-11-15T05:44:19.030Z,96.80
2022-11-15T05:46:46.304Z,689.95
2022-11-15T05:49:17.207Z,739.90
2022-11-15T05:51:45.173Z,249.45
2022-11-15T05:54:12.879Z,883.20
2022-11-15T05:56:40.114Z,1798.53
2022-11-15T05:59:08.373Z,104.43
2022-11-15T06:01:35.093Z,425.40
2022-11-15T06:04:02.069Z,521.58
2022-11-15T06:06:29.948Z,166.13
2022-11-15T06:08:56.804Z,223.95
2022-11-15T06:11:23.503Z,59.97
2022-11-15T06:13:50.207Z,60.22
2022-11-15T06:16:16.822Z,57.35
2022-11-15T06:18:44.072Z,51.53
2022-11-15T06:21:10.799Z,40.55
2022-11-15T06:23:37.479Z,48.72
2022-11-15T06:26:04.773Z,35.28
2022-11-15T06:28:33.154Z,1007.72
2022-11-15T06:31:08.566Z,760.67
2022-11-15T06:33:35.401Z,146.90
2022-11-15T06:36:07.334Z,222.00
2022-11-15T06:38:34.190Z,197.57
2022-11-15T06:41:08.959Z,707.95
2022-11-15T06:43:36.572Z,87.90
2022-11-15T06:46:04.780Z,53.58
2022-11-15T06:48:32.872Z,104.10
2022-11-15T06:51:01.512Z,47.55
2022-11-15T06:53:29.030Z,74.35
2022-11-15T06:55:59.870Z,41.17
2022-11-15T06:58:26.534Z,31.35
2022-11-15T07:00:53.262Z,31.52
2022-11-15T07:03:19.906Z,36.95
2022-11-15T07:05:57.423Z,89.55
2022-11-15T07:08:28.183Z,73.85
2022-11-15T07:10:55.160Z,38.65
2022-11-15T07:13:26.904Z,45.35
2022-11-15T07:15:53.808Z,59.63
2022-11-15T07:18:20.539Z,51.13
2022-11-15T07:20:47.447Z,57.40
2022-11-15T07:23:14.264Z,49.55
2022-11-15T07:25:40.825Z,54.35
2022-11-15T07:28:07.756Z,37.33
2022-11-15T07:30:34.746Z,35.15
2022-11-15T07:33:01.964Z,37.00
2022-11-15T07:35:30.129Z,36.78
2022-11-15T07:38:01.934Z,39.28
2022-11-15T07:40:30.587Z,52.85
2022-11-15T07:43:06.047Z,39.85
2022-11-15T07:45:36.239Z,413.75
2022-11-15T07:48:02.818Z,380.60
2022-11-15T07:50:31.051Z,274.65
2022-11-15T07:52:59.380Z,81.47
2022-11-15T07:55:28.305Z,55.97
2022-11-15T07:58:01.798Z,75.68
2022-11-15T08:00:28.612Z,40.80
2022-11-15T08:03:13.009Z,43.20
2022-11-15T08:05:41.199Z,39.55
2022-11-15T08:08:09.438Z,47.65
2022-11-15T08:10:40.606Z,31.23
2022-11-15T08:13:10.512Z,36.45
2022-11-15T08:15:38.528Z,46.45
2022-11-15T08:18:07.936Z,37.70
2022-11-15T08:20:35.140Z,60.13
2022-11-15T08:23:03.977Z,68.80
2022-11-15T08:25:33.160Z,73.35
2022-11-15T08:28:06.423Z,50.42
2022-11-15T08:30:38.077Z,43.27
2022-11-15T08:33:05.708Z,30.60
2022-11-15T08:35:32.520Z,29.20
2022-11-15T08:37:59.100Z,38.05
2022-11-15T08:40:25.938Z,35.15
2022-11-15T08:42:52.684Z,88.75
2022-11-15T08:45:19.292Z,52.92
2022-11-15T08:47:49.814Z,38.25
2022-11-15T08:50:20.978Z,38.38
2022-11-15T08:52:49.317Z,35.05
2022-11-15T08:55:17.694Z,30.65
2022-11-15T08:57:44.800Z,31.70
2022-11-15T09:00:13.194Z,36.92
2022-11-15T09:02:41.091Z,38.50
2022-11-15T09:05:08.755Z,39.80
2022-11-15T09:07:35.765Z,31.90
2022-11-15T09:10:02.484Z,31.42
2022-11-15T09:12:29.465Z,32.20
2022-11-15T09:14:56.183Z,53.30
2022-11-15T09:17:24.908Z,35.63
2022-11-15T09:19:52.407Z,36.40
2022-11-15T09:22:19.346Z,36.13
2022-11-15T09:24:45.982Z,48.55
2022-11-15T09:27:13.920Z,31.15
2022-11-15T09:29:40.635Z,31.50
2022-11-15T09:32:07.299Z,32.22
2022-11-15T09:34:34.324Z,35.65
2022-11-15T09:37:01.087Z,34.75
2022-11-15T09:39:27.808Z,29.20
2022-11-15T09:42:32.494Z,32.38
2022-11-15T09:45:27.460Z,44.10
2022-11-15T09:48:12.967Z,46.15
2022-11-15T09:50:51.813Z,37.22
2022-11-15T09:56:30.535Z,40.97
2022-11-15T09:59:03.206Z,40.63
2022-11-15T10:01:39.094Z,38.65
2022-11-15T10:04:10.639Z,37.60
2022-11-15T10:06:46.733Z,47.95
2022-11-15T10:09:44.028Z,44.10
2022-11-15T10:12:13.869Z,49.58
2022-11-15T10:14:40.660Z,51.58
2022-11-15T10:17:35.616Z,63.03
2022-11-15T10:20:22.295Z,61.25
2022-11-15T10:22:52.554Z,58.55
2022-11-15T10:25:31.058Z,76.82
2022-11-15T10:28:14.926Z,72.90
2022-11-15T10:30:44.543Z,61.60
2022-11-15T10:33:18.720Z,51.08
2022-11-15T10:38:13.225Z,67.55
2022-11-15T10:40:41.840Z,50.47
2022-11-15T10:43:11.344Z,61.90
2022-11-15T10:45:39.307Z,61.42
2022-11-15T10:48:15.559Z,68.75
2022-11-15T10:50:47.125Z,68.45
2022-11-15T10:53:24.400Z,60.25
2022-11-15T10:55:54.848Z,53.65
2022-11-15T10:58:38.379Z,48.22
2022-11-15T11:01:20.175Z,47.78
2022-11-15T11:04:05.610Z,48.58
2022-11-15T11:06:51.008Z,51.08
2022-11-15T11:09:30.386Z,50.10
2022-11-15T11:11:57.412Z,44.60
2022-11-15T11:14:32.448Z,42.85
2022-11-15T11:17:17.333Z,45.60
2022-11-15T11:19:44.077Z,46.60
2022-11-15T11:22:21.418Z,46.15
2022-11-15T11:25:22.122Z,51.22
2022-11-15T11:27:54.600Z,45.28
2022-11-15T11:30:39.942Z,44.03
2022-11-15T11:33:17.835Z,42.50
2022-11-15T11:36:21.403Z,47.00
2022-11-15T11:38:56.064Z,38.55
2022-11-15T11:41:43.909Z,38.90
2022-11-15T11:44:16.443Z,42.42
2022-11-15T11:46:53.856Z,42.15
2022-11-15T11:49:30.437Z,46.95
2022-11-15T11:51:57.188Z,41.38
2022-11-15T11:54:45.248Z,41.88
2022-11-15T11:57:26.881Z,43.35
2022-11-15T12:00:02.303Z,40.92
2022-11-15T12:02:42.761Z,43.25
2022-11-15T12:05:30.252Z,44.05
2022-11-15T12:08:05.653Z,42.60
2022-11-15T12:10:34.676Z,41.88
2022-11-15T12:13:17.221Z,38.97
2022-11-15T12:15:48.610Z,41.20
2022-11-15T12:18:17.433Z,41.55
2022-11-15T12:20:56.689Z,43.35
2022-11-15T12:23:40.758Z,38.25
2022-11-15T12:26:18.051Z,39.95
2022-11-15T12:29:06.884Z,35.90
2022-11-15T12:31:39.500Z,39.63
2022-11-15T12:34:21.111Z,37.08
2022-11-15T12:36:49.098Z,38.00
2022-11-15T12:39:17.031Z,41.78
2022-11-15T12:41:45.921Z,38.72
2022-11-15T12:44:32.423Z,38.25
2022-11-15T12:46:59.164Z,39.08
2022-11-15T12:49:28.519Z,35.58
2022-11-15T12:51:58.269Z,34.83
2022-11-15T12:54:24.901Z,35.67
2022-11-15T12:57:10.196Z,37.08
2022-11-15T12:59:51.184Z,32.00
2022-11-15T13:02:44.923Z,33.15
2022-11-15T13:05:19.388Z,34.60
2022-11-15T13:07:46.483Z,39.13
2022-11-15T13:10:13.177Z,36.20
2022-11-15T13:12:41.962Z,41.25
2022-11-15T13:15:14.819Z,41.72
2022-11-15T13:17:45.961Z,38.88
2022-11-15T13:20:19.302Z,33.45
2022-11-15T13:23:11.133Z,36.17
2022-11-15T13:25:41.042Z,33.95
2022-11-15T13:28:17.061Z,32.53
2022-11-15T13:30:52.110Z,32.17
2022-11-15T13:33:45.464Z,30.35
2022-11-15T13:36:22.744Z,29.55
2022-11-15T13:39:04.987Z,33.03
2022-11-15T13:41:34.638Z,30.65
2022-11-15T13:44:02.627Z,29.30
2022-11-15T13:46:31.501Z,27.92
2022-11-15T13:49:01.007Z,27.33
2022-11-15T13:51:27.595Z,30.77
2022-11-15T13:54:08.059Z,35.03
2022-11-15T13:56:35.604Z,35.78
2022-11-15T13:59:21.492Z,40.65
2022-11-15T14:01:48.499Z,33.95
2022-11-15T14:04:21.379Z,32.10
2022-11-15T14:06:54.858Z,29.83
2022-11-15T14:09:41.412Z,36.47
2022-11-15T14:12:28.403Z,39.08
2022-11-15T14:14:55.190Z,42.80
2022-11-15T14:17:47.198Z,41.70
2022-11-15T14:20:36.793Z,41.70
2022-11-15T14:23:29.927Z,41.13
2022-11-15T14:25:58.639Z,40.42
2022-11-15T14:28:25.205Z,39.97
2022-11-15T14:30:57.751Z,36.90
2022-11-15T14:33:33.814Z,34.67
2022-11-15T14:36:18.593Z,35.95
2022-11-15T14:38:45.972Z,35.50
2022-11-15T14:41:24.481Z,33.53
2022-11-15T14:43:52.515Z,34.92
2022-11-15T14:46:19.333Z,33.92
2022-11-15T14:48:46.007Z,35.47
2022-11-15T14:51:19.495Z,70.32
2022-11-15T14:53:47.597Z,47.38
2022-11-15T14:56:15.588Z,56.55
2022-11-15T14:58:42.276Z,115.13
2022-11-15T15:01:23.026Z,62.83
2022-11-15T15:03:49.768Z,51.28
2022-11-15T15:06:18.174Z,107.07
2022-11-15T15:08:46.492Z,58.35
2022-11-15T15:11:22.545Z,61.90
2022-11-15T15:13:49.330Z,155.68
2022-11-15T15:16:15.957Z,218.02
2022-11-15T15:18:42.613Z,79.82
2022-11-15T15:21:18.539Z,112.80
2022-11-15T15:23:45.176Z,145.48
2022-11-15T15:26:11.945Z,153.35
2022-11-15T15:28:40.760Z,246.55
2022-11-15T15:31:09.053Z,199.27
2022-11-15T15:33:35.847Z,134.23
2022-11-15T15:36:03.341Z,322.13
2022-11-15T15:38:30.564Z,282.40
2022-11-15T15:40:57.544Z,378.25
2022-11-15T15:43:24.212Z,366.27
2022-11-15T15:45:51.020Z,303.17
2022-11-15T15:48:18.262Z,330.02
2022-11-15T15:50:45.155Z,265.15
2022-11-15T15:53:13.006Z,84.68
2022-11-15T15:55:40.036Z,110.45
2022-11-15T15:58:07.426Z,54.17
2022-11-15T16:00:34.775Z,62.10
2022-11-15T16:03:01.651Z,86.63
2022-11-15T16:05:28.402Z,86.45
2022-11-15T16:07:55.626Z,64.20
2022-11-15T16:10:22.647Z,102.90
2022-11-15T16:12:49.772Z,179.32
2022-11-15T16:15:16.535Z,120.10
2022-11-15T16:17:49.463Z,57.03
2022-11-15T16:20:21.903Z,56.85
2022-11-15T16:22:49.205Z,37.75
2022-11-15T16:25:15.852Z,51.33
2022-11-15T16:27:46.112Z,51.55
2022-11-15T16:30:19.284Z,52.50
2022-11-15T16:32:46.144Z,145.13
2022-11-15T16:35:14.424Z,203.30
2022-11-15T16:37:41.823Z,79.45
2022-11-15T16:40:31.367Z,57.90
2022-11-15T16:42:59.841Z,62.47
2022-11-15T16:45:29.267Z,287.80
2022-11-15T16:47:57.115Z,164.75
2022-11-15T16:50:32.841Z,145.95
2022-11-15T16:53:00.095Z,193.90
2022-11-15T16:55:29.052Z,113.28
2022-11-15T16:57:58.074Z,197.02
2022-11-15T17:00:25.838Z,185.57
2022-11-15T17:02:53.677Z,157.32
2022-11-15T17:05:22.856Z,182.43
2022-11-15T17:07:52.431Z,55.55
2022-11-15T17:10:19.923Z,63.13
2022-11-15T17:12:47.009Z,88.15
2022-11-15T17:15:14.790Z,74.13
2022-11-15T17:17:42.247Z,35.78
2022-11-15T17:20:17.639Z,149.05
2022-11-15T17:22:45.278Z,97.85
2022-11-15T17:25:12.013Z,94.10
2022-11-15T17:27:38.795Z,67.28
2022-11-15T17:30:06.352Z,170.98
2022-11-15T17:32:35.348Z,136.35
2022-11-15T17:35:02.199Z,53.90
2022-11-15T17:37:28.983Z,139.95
2022-11-15T17:39:55.543Z,110.25
2022-11-15T17:42:22.264Z,57.97
2022-11-15T17:44:48.927Z,122.70
2022-11-15T17:47:15.604Z,81.50
2022-11-15T17:49:43.328Z,74.07
2022-11-15T17:52:10.323Z,67.20
2022-11-15T17:54:36.966Z,60.78
2022-11-15T17:57:04.076Z,80.82
2022-11-15T17:59:30.775Z,78.15
2022-11-15T18:01:57.403Z,115.93
2022-11-15T18:04:28.448Z,84.97
2022-11-15T18:06:56.522Z,131.82
2022-11-15T18:09:23.395Z,69.82
2022-11-15T18:11:51.914Z,85.55
2022-11-15T18:14:19.517Z,93.07
2022-11-15T18:16:46.667Z,85.68
2022-11-15T18:19:13.986Z,92.72
2022-11-15T18:21:59.254Z,74.15
2022-11-15T18:24:29.743Z,61.25
2022-11-15T18:26:56.992Z,91.68
2022-11-15T18:29:24.704Z,420.80
2022-11-15T18:31:56.030Z,106.85
2022-11-15T18:34:24.646Z,1168.63
2022-11-15T18:36:52.634Z,248.27
2022-11-15T18:39:19.416Z,60.30
2022-11-15T18:41:46.911Z,65.25
2022-11-15T18:44:13.991Z,88.75
2022-11-15T18:46:42.397Z,54.35
2022-11-15T18:49:10.788Z,48.15
2022-11-15T18:51:41.609Z,44.53
2022-11-15T18:54:10.965Z,49.30
2022-11-15T18:56:38.390Z,55.00
2022-11-15T18:59:06.241Z,57.53
2022-11-15T19:01:36.139Z,54.35
2022-11-15T19:04:17.701Z,69.13
2022-11-15T19:06:46.848Z,82.60
2022-11-15T19:09:16.302Z,187.88
2022-11-15T19:11:44.551Z,63.03
2022-11-15T19:14:16.578Z,90.13
2022-11-15T19:16:52.324Z,111.97
2022-11-15T19:19:25.250Z,83.85
2022-11-15T19:21:52.875Z,100.28
2022-11-15T19:24:20.069Z,71.63
2022-11-15T19:26:47.228Z,93.28
2022-11-15T19:29:18.243Z,65.25
2022-11-15T19:31:45.908Z,105.47
2022-11-15T19:34:13.082Z,80.25
2022-11-15T19:36:44.431Z,55.42
2022-11-15T19:39:13.431Z,73.03
2022-11-15T19:41:42.614Z,77.15
2022-11-15T19:44:10.864Z,76.60
2022-11-15T19:46:38.544Z,59.30
2022-11-15T19:49:07.936Z,56.90
2022-11-15T19:51:34.587Z,83.70
2022-11-15T19:54:06.830Z,77.07
2022-11-15T19:56:34.866Z,91.68
2022-11-15T19:59:03.349Z,89.38
2022-11-15T20:01:33.098Z,66.40
2022-11-15T20:04:00.892Z,76.95
2022-11-15T20:06:31.451Z,43.90
2022-11-15T20:08:58.936Z,37.60
2022-11-15T20:11:26.227Z,99.88
2022-11-15T20:14:02.378Z,948.38
2022-11-15T20:16:30.012Z,415.65
2022-11-15T20:18:57.428Z,844.22
2022-11-15T20:21:24.876Z,522.50
2022-11-15T20:23:52.019Z,228.38
2022-11-15T20:26:20.143Z,134.40
2022-11-15T20:28:48.337Z,314.88
2022-11-15T20:31:15.878Z,347.90
2022-11-15T20:33:42.691Z,81.28
2022-11-15T20:36:15.672Z,115.82
2022-11-15T20:38:43.425Z,74.88
2022-11-15T20:41:10.868Z,1071.63
2022-11-15T20:43:37.705Z,111.85
2022-11-15T20:46:04.804Z,55.30
2022-11-15T20:48:31.941Z,70.78
2022-11-15T20:51:25.173Z,70.35
2022-11-15T20:53:51.904Z,59.88
2022-11-15T20:56:21.187Z,57.97
2022-11-15T20:58:50.433Z,49.38
2022-11-15T21:01:23.521Z,65.88
2022-11-15T21:03:55.152Z,51.42
2022-11-15T21:06:23.189Z,72.78
2022-11-15T21:09:10.556Z,65.60
2022-11-15T21:11:56.036Z,48.22
2022-11-15T21:14:23.027Z,43.42
2022-11-15T21:16:49.931Z,45.47
2022-11-15T21:19:16.828Z,42.10
2022-11-15T21:21:43.724Z,42.65
2022-11-15T21:24:10.483Z,41.72
2022-11-15T21:26:37.759Z,42.72
2022-11-15T21:29:05.113Z,46.88
2022-11-15T21:31:32.105Z,41.97
2022-11-15T21:34:01.448Z,37.33
2022-11-15T21:36:28.269Z,40.97
2022-11-15T21:38:54.841Z,41.83
2022-11-15T21:41:21.508Z,37.25
2022-11-15T21:43:48.473Z,42.72
2022-11-15T21:46:15.297Z,57.22
2022-11-15T21:48:42.419Z,98.60
2022-11-15T21:51:12.105Z,65.38
2022-11-15T21:53:38.676Z,60.38
2022-11-15T21:56:06.766Z,47.33
2022-11-15T21:58:34.002Z,50.28
2022-11-15T22:01:20.180Z,45.22
2022-11-15T22:03:47.315Z,43.28
2022-11-15T22:06:17.836Z,38.72
2022-11-15T22:08:45.754Z,40.25
2022-11-15T22:11:13.437Z,38.97
2022-11-15T22:13:40.596Z,41.13
2022-11-15T22:16:08.381Z,41.67
2022-11-15T22:18:35.551Z,39.67
2022-11-15T22:21:11.134Z,41.33
2022-11-15T22:23:38.979Z,42.33
2022-11-15T22:26:06.743Z,40.75
2022-11-15T22:28:33.780Z,42.38
2022-11-15T22:31:00.789Z,41.90
2022-11-15T22:33:30.074Z,44.40
2022-11-15T22:35:57.637Z,46.40
2022-11-15T22:38:25.139Z,42.30
2022-11-15T22:40:52.084Z,42.20
2022-11-15T22:43:20.453Z,43.05
2022-11-15T22:45:52.145Z,41.28
2022-11-15T22:48:34.064Z,45.42
2022-11-15T22:51:01.690Z,43.90
2022-11-15T22:53:29.396Z,49.28
2022-11-15T22:56:01.416Z,47.13
2022-11-15T22:58:30.935Z,48.58
2022-11-15T23:01:00.977Z,54.35
2022-11-15T23:03:28.907Z,50.42
2022-11-15T23:06:00.700Z,51.30
2022-11-15T23:08:27.520Z,49.75
2022-11-15T23:11:12.792Z,48.22
2022-11-15T23:13:39.438Z,48.67
2022-11-15T23:16:24.025Z,43.97
2022-11-15T23:18:53.297Z,41.67
2022-11-15T23:21:41.965Z,44.85
2022-11-15T23:24:11.127Z,44.78
2022-11-15T23:26:38.788Z,42.83
2022-11-15T23:29:08.640Z,42.53
2022-11-15T23:32:01.690Z,41.90
2022-11-15T23:34:35.862Z,39.70
2022-11-15T23:37:02.509Z,38.70
2022-11-15T23:39:29.279Z,37.80
2022-11-15T23:41:56.553Z,36.95
2022-11-15T23:44:24.098Z,36.75
2022-11-15T23:46:50.967Z,37.42
2022-11-15T23:49:17.886Z,38.88
2022-11-15T23:51:44.697Z,35.22
2022-11-15T23:54:11.772Z,33.40
2022-11-15T23:56:38.759Z,33.90
2022-11-15T23:59:06.182Z,34.70
